sensor_id;sensor_type;location;lat;lon;timestamp;noise_LAeq;noise_LA_min;noise_LA_max;noise_LA01;noise_LA95
64079;Laerm;51042;49.696;10.808;2022-08-07T00:00:03;41.59;38.94;54.91;;
64079;Laerm;51042;49.696;10.808;2022-08-07T00:02:29;43.67;39.44;63.01;;
64079;Laerm;51042;49.696;10.808;2022-08-07T00:04:54;42.21;39.48;54.98;;
64079;Laerm;51042;49.696;10.808;2022-08-07T00:07:19;41.79;38.90;55.25;;
64079;Laerm;51042;49.696;10.808;2022-08-07T00:09:44;42.60;39.07;60.20;;
64079;Laerm;51042;49.696;10.808;2022-08-07T00:12:10;53.20;39.77;72.57;;
64079;Laerm;51042;49.696;10.808;2022-08-07T00:14:35;42.02;39.21;52.10;;
64079;Laerm;51042;49.696;10.808;2022-08-07T00:17:01;44.01;39.20;62.94;;
64079;Laerm;51042;49.696;10.808;2022-08-07T00:19:27;41.96;39.21;53.03;;
64079;Laerm;51042;49.696;10.808;2022-08-07T00:21:52;46.44;38.55;63.44;;
64079;Laerm;51042;49.696;10.808;2022-08-07T00:24:18;41.54;37.93;55.26;;
64079;Laerm;51042;49.696;10.808;2022-08-07T00:26:43;41.44;38.30;57.94;;
64079;Laerm;51042;49.696;10.808;2022-08-07T00:29:08;41.71;37.81;55.64;;
64079;Laerm;51042;49.696;10.808;2022-08-07T00:31:33;41.07;38.10;54.38;;
64079;Laerm;51042;49.696;10.808;2022-08-07T00:33:59;40.54;37.68;53.57;;
64079;Laerm;51042;49.696;10.808;2022-08-07T00:36:24;40.50;37.66;53.28;;
64079;Laerm;51042;49.696;10.808;2022-08-07T00:38:49;41.46;38.27;53.34;;
64079;Laerm;51042;49.696;10.808;2022-08-07T00:41:15;41.62;38.39;48.56;;
64079;Laerm;51042;49.696;10.808;2022-08-07T00:43:40;41.15;37.68;47.50;;
64079;Laerm;51042;49.696;10.808;2022-08-07T00:46:06;40.57;37.88;47.87;;
64079;Laerm;51042;49.696;10.808;2022-08-07T00:48:31;40.87;38.19;46.27;;
64079;Laerm;51042;49.696;10.808;2022-08-07T00:50:57;40.61;38.01;47.35;;
64079;Laerm;51042;49.696;10.808;2022-08-07T00:53:22;43.17;38.59;52.90;;
64079;Laerm;51042;49.696;10.808;2022-08-07T00:55:48;40.84;38.38;43.57;;
64079;Laerm;51042;49.696;10.808;2022-08-07T00:58:14;40.69;37.58;47.16;;
64079;Laerm;51042;49.696;10.808;2022-08-07T01:00:39;40.58;37.92;44.18;;
64079;Laerm;51042;49.696;10.808;2022-08-07T01:03:04;40.35;37.32;48.37;;
64079;Laerm;51042;49.696;10.808;2022-08-07T01:05:30;40.62;37.53;58.92;;
64079;Laerm;51042;49.696;10.808;2022-08-07T01:07:56;40.59;37.95;44.21;;
64079;Laerm;51042;49.696;10.808;2022-08-07T01:10:22;46.57;38.32;63.18;;
64079;Laerm;51042;49.696;10.808;2022-08-07T01:12:48;41.14;37.81;53.67;;
64079;Laerm;51042;49.696;10.808;2022-08-07T01:15:14;40.75;37.88;45.55;;
64079;Laerm;51042;49.696;10.808;2022-08-07T01:17:39;40.47;37.89;42.82;;
64079;Laerm;51042;49.696;10.808;2022-08-07T01:20:10;40.63;37.07;43.36;;
64079;Laerm;51042;49.696;10.808;2022-08-07T01:22:37;40.48;38.01;43.28;;
64079;Laerm;51042;49.696;10.808;2022-08-07T01:25:03;40.88;38.13;43.44;;
64079;Laerm;51042;49.696;10.808;2022-08-07T01:27:29;40.60;37.82;43.99;;
64079;Laerm;51042;49.696;10.808;2022-08-07T01:29:55;40.94;37.78;43.60;;
64079;Laerm;51042;49.696;10.808;2022-08-07T01:32:20;41.09;38.08;43.43;;
64079;Laerm;51042;49.696;10.808;2022-08-07T01:34:46;41.18;38.18;49.19;;
64079;Laerm;51042;49.696;10.808;2022-08-07T01:37:11;41.11;38.53;45.79;;
64079;Laerm;51042;49.696;10.808;2022-08-07T01:39:42;41.54;38.19;54.96;;
64079;Laerm;51042;49.696;10.808;2022-08-07T01:42:07;41.20;38.29;43.73;;
64079;Laerm;51042;49.696;10.808;2022-08-07T01:44:33;41.29;38.50;44.68;;
64079;Laerm;51042;49.696;10.808;2022-08-07T01:46:58;41.15;37.72;45.34;;
64079;Laerm;51042;49.696;10.808;2022-08-07T01:49:23;40.33;37.39;49.48;;
64079;Laerm;51042;49.696;10.808;2022-08-07T01:51:49;40.69;37.75;45.22;;
64079;Laerm;51042;49.696;10.808;2022-08-07T01:54:18;41.26;38.29;43.82;;
64079;Laerm;51042;49.696;10.808;2022-08-07T01:59:16;41.28;38.41;44.42;;
64079;Laerm;51042;49.696;10.808;2022-08-07T02:01:46;41.09;37.98;43.66;;
64079;Laerm;51042;49.696;10.808;2022-08-07T02:04:17;40.83;38.15;43.30;;
64079;Laerm;51042;49.696;10.808;2022-08-07T02:06:48;41.03;38.24;43.28;;
64079;Laerm;51042;49.696;10.808;2022-08-07T02:09:16;41.40;38.61;44.67;;
64079;Laerm;51042;49.696;10.808;2022-08-07T02:11:45;41.11;38.70;45.19;;
64079;Laerm;51042;49.696;10.808;2022-08-07T02:14:13;40.84;37.70;43.10;;
64079;Laerm;51042;49.696;10.808;2022-08-07T02:16:41;40.66;37.73;43.31;;
64079;Laerm;51042;49.696;10.808;2022-08-07T02:19:09;40.59;38.07;43.09;;
64079;Laerm;51042;49.696;10.808;2022-08-07T02:21:37;40.99;37.57;43.87;;
64079;Laerm;51042;49.696;10.808;2022-08-07T02:24:04;41.72;38.93;47.91;;
64079;Laerm;51042;49.696;10.808;2022-08-07T02:26:31;41.86;39.53;44.19;;
64079;Laerm;51042;49.696;10.808;2022-08-07T02:28:57;41.68;38.91;44.21;;
64079;Laerm;51042;49.696;10.808;2022-08-07T02:31:24;41.62;38.94;47.51;;
64079;Laerm;51042;49.696;10.808;2022-08-07T02:33:52;41.42;38.93;47.99;;
64079;Laerm;51042;49.696;10.808;2022-08-07T02:36:18;41.52;38.95;44.90;;
64079;Laerm;51042;49.696;10.808;2022-08-07T02:38:44;41.71;38.53;44.01;;
64079;Laerm;51042;49.696;10.808;2022-08-07T02:41:11;41.58;38.45;48.07;;
64079;Laerm;51042;49.696;10.808;2022-08-07T02:43:39;47.71;39.46;66.29;;
64079;Laerm;51042;49.696;10.808;2022-08-07T02:46:07;42.02;38.83;54.51;;
64079;Laerm;51042;49.696;10.808;2022-08-07T02:48:33;41.04;38.63;43.73;;
64079;Laerm;51042;49.696;10.808;2022-08-07T02:51:04;41.41;38.69;46.45;;
64079;Laerm;51042;49.696;10.808;2022-08-07T02:53:32;41.72;38.81;53.50;;
64079;Laerm;51042;49.696;10.808;2022-08-07T02:56:00;43.53;39.31;51.81;;
64079;Laerm;51042;49.696;10.808;2022-08-07T02:58:27;41.98;38.91;46.52;;
64079;Laerm;51042;49.696;10.808;2022-08-07T03:00:55;42.17;39.35;48.06;;
64079;Laerm;51042;49.696;10.808;2022-08-07T03:03:22;41.80;38.65;48.75;;
64079;Laerm;51042;49.696;10.808;2022-08-07T03:05:50;42.27;39.38;47.83;;
64079;Laerm;51042;49.696;10.808;2022-08-07T03:08:16;43.78;38.71;58.26;;
64079;Laerm;51042;49.696;10.808;2022-08-07T03:10:42;41.92;39.31;44.27;;
64079;Laerm;51042;49.696;10.808;2022-08-07T03:13:10;42.35;39.61;47.21;;
64079;Laerm;51042;49.696;10.808;2022-08-07T03:15:37;42.36;39.14;44.81;;
64079;Laerm;51042;49.696;10.808;2022-08-07T03:18:03;42.74;39.82;47.28;;
64079;Laerm;51042;49.696;10.808;2022-08-07T03:20:29;42.67;39.57;44.90;;
64079;Laerm;51042;49.696;10.808;2022-08-07T03:22:55;42.55;39.46;45.58;;
64079;Laerm;51042;49.696;10.808;2022-08-07T03:25:23;42.48;39.47;44.87;;
64079;Laerm;51042;49.696;10.808;2022-08-07T03:27:49;43.32;39.44;61.42;;
64079;Laerm;51042;49.696;10.808;2022-08-07T03:30:15;49.48;39.56;64.01;;
64079;Laerm;51042;49.696;10.808;2022-08-07T03:32:42;44.13;39.18;64.49;;
64079;Laerm;51042;49.696;10.808;2022-08-07T03:35:14;43.85;39.65;62.96;;
64079;Laerm;51042;49.696;10.808;2022-08-07T03:37:43;45.67;39.22;64.09;;
64079;Laerm;51042;49.696;10.808;2022-08-07T03:40:10;48.10;39.10;63.92;;
64079;Laerm;51042;49.696;10.808;2022-08-07T03:42:36;45.53;39.80;63.29;;
64079;Laerm;51042;49.696;10.808;2022-08-07T03:45:03;43.71;40.14;62.41;;
64079;Laerm;51042;49.696;10.808;2022-08-07T03:47:29;42.65;40.16;45.44;;
64079;Laerm;51042;49.696;10.808;2022-08-07T03:49:56;42.91;40.19;51.02;;
64079;Laerm;51042;49.696;10.808;2022-08-07T03:52:24;42.62;40.05;47.38;;
64079;Laerm;51042;49.696;10.808;2022-08-07T03:54:51;42.22;39.50;47.15;;
64079;Laerm;51042;49.696;10.808;2022-08-07T03:57:16;42.04;39.23;45.78;;
64079;Laerm;51042;49.696;10.808;2022-08-07T03:59:43;42.13;39.28;45.45;;
64079;Laerm;51042;49.696;10.808;2022-08-07T04:02:10;43.96;39.78;63.44;;
64079;Laerm;51042;49.696;10.808;2022-08-07T04:04:35;43.36;39.53;56.30;;
64079;Laerm;51042;49.696;10.808;2022-08-07T04:07:01;45.38;39.17;65.60;;
64079;Laerm;51042;49.696;10.808;2022-08-07T04:09:27;48.50;38.83;66.05;;
64079;Laerm;51042;49.696;10.808;2022-08-07T04:11:54;42.09;38.90;44.80;;
64079;Laerm;51042;49.696;10.808;2022-08-07T04:14:20;42.28;39.32;49.41;;
64079;Laerm;51042;49.696;10.808;2022-08-07T04:16:46;42.62;39.39;55.46;;
64079;Laerm;51042;49.696;10.808;2022-08-07T04:19:13;42.57;39.52;50.35;;
64079;Laerm;51042;49.696;10.808;2022-08-07T04:21:39;42.68;39.18;50.41;;
64079;Laerm;51042;49.696;10.808;2022-08-07T04:24:05;42.21;38.58;53.07;;
64079;Laerm;51042;49.696;10.808;2022-08-07T04:26:37;43.03;39.48;53.41;;
64079;Laerm;51042;49.696;10.808;2022-08-07T04:29:05;43.57;39.70;56.51;;
64079;Laerm;51042;49.696;10.808;2022-08-07T04:31:31;42.47;39.03;57.47;;
64079;Laerm;51042;49.696;10.808;2022-08-07T04:33:57;43.44;38.70;66.70;;
64079;Laerm;51042;49.696;10.808;2022-08-07T04:36:23;42.89;38.66;60.05;;
64079;Laerm;51042;49.696;10.808;2022-08-07T04:38:48;41.70;38.87;53.67;;
64079;Laerm;51042;49.696;10.808;2022-08-07T04:41:14;41.73;38.67;52.77;;
64079;Laerm;51042;49.696;10.808;2022-08-07T04:43:41;41.84;38.94;57.09;;
64079;Laerm;51042;49.696;10.808;2022-08-07T04:49:23;41.98;39.36;62.63;;
64079;Laerm;51042;49.696;10.808;2022-08-07T04:57:41;41.26;38.36;49.13;;
64079;Laerm;51042;49.696;10.808;2022-08-07T05:00:13;51.42;38.75;69.18;;
64079;Laerm;51042;49.696;10.808;2022-08-07T05:05:42;41.81;38.54;54.90;;
64079;Laerm;51042;49.696;10.808;2022-08-07T05:11:04;42.09;38.49;60.15;;
64079;Laerm;51042;49.696;10.808;2022-08-07T05:13:35;42.75;38.78;57.32;;
64079;Laerm;51042;49.696;10.808;2022-08-07T05:16:08;43.32;38.23;58.61;;
64079;Laerm;51042;49.696;10.808;2022-08-07T05:18:38;41.37;37.97;58.25;;
64079;Laerm;51042;49.696;10.808;2022-08-07T05:21:07;45.08;38.55;57.24;;
64079;Laerm;51042;49.696;10.808;2022-08-07T05:23:46;42.94;38.33;52.81;;
64079;Laerm;51042;49.696;10.808;2022-08-07T05:26:16;40.83;38.09;46.86;;
64079;Laerm;51042;49.696;10.808;2022-08-07T05:28:43;40.80;38.22;48.62;;
64079;Laerm;51042;49.696;10.808;2022-08-07T05:31:10;41.29;38.17;59.15;;
64079;Laerm;51042;49.696;10.808;2022-08-07T05:33:37;41.48;38.18;48.35;;
64079;Laerm;51042;49.696;10.808;2022-08-07T05:36:04;41.92;38.83;56.50;;
64079;Laerm;51042;49.696;10.808;2022-08-07T05:38:31;41.30;38.66;47.10;;
64079;Laerm;51042;49.696;10.808;2022-08-07T05:40:57;40.94;38.02;45.80;;
64079;Laerm;51042;49.696;10.808;2022-08-07T05:43:24;47.92;37.79;64.05;;
64079;Laerm;51042;49.696;10.808;2022-08-07T05:45:49;40.87;37.82;51.45;;
64079;Laerm;51042;49.696;10.808;2022-08-07T05:48:15;41.11;38.23;53.62;;
64079;Laerm;51042;49.696;10.808;2022-08-07T05:50:42;41.52;38.77;52.27;;
64079;Laerm;51042;49.696;10.808;2022-08-07T05:53:08;42.12;38.98;49.85;;
64079;Laerm;51042;49.696;10.808;2022-08-07T05:55:34;45.28;38.87;57.25;;
64079;Laerm;51042;49.696;10.808;2022-08-07T05:58:01;46.58;38.58;67.46;;
64079;Laerm;51042;49.696;10.808;2022-08-07T06:00:28;43.87;39.00;65.31;;
64079;Laerm;51042;49.696;10.808;2022-08-07T06:02:56;42.71;39.09;67.10;;
64079;Laerm;51042;49.696;10.808;2022-08-07T06:05:23;43.84;38.94;66.98;;
64079;Laerm;51042;49.696;10.808;2022-08-07T06:07:54;45.50;38.49;74.04;;
64079;Laerm;51042;49.696;10.808;2022-08-07T06:10:20;42.16;38.15;65.07;;
64079;Laerm;51042;49.696;10.808;2022-08-07T06:12:47;42.27;37.73;53.90;;
64079;Laerm;51042;49.696;10.808;2022-08-07T06:15:14;45.35;37.72;68.31;;
64079;Laerm;51042;49.696;10.808;2022-08-07T06:17:40;50.32;38.10;67.00;;
64079;Laerm;51042;49.696;10.808;2022-08-07T06:20:07;40.93;37.92;51.28;;
64079;Laerm;51042;49.696;10.808;2022-08-07T06:22:34;40.54;37.59;47.59;;
64079;Laerm;51042;49.696;10.808;2022-08-07T06:25:00;41.59;37.48;56.56;;
64079;Laerm;51042;49.696;10.808;2022-08-07T06:27:25;42.22;37.93;56.45;;
64079;Laerm;51042;49.696;10.808;2022-08-07T06:29:51;41.67;38.17;52.43;;
64079;Laerm;51042;49.696;10.808;2022-08-07T06:32:17;42.12;38.09;56.89;;
64079;Laerm;51042;49.696;10.808;2022-08-07T06:34:42;41.52;37.60;54.85;;
64079;Laerm;51042;49.696;10.808;2022-08-07T06:37:07;42.94;38.00;57.40;;
64079;Laerm;51042;49.696;10.808;2022-08-07T06:39:33;44.14;37.16;61.60;;
64079;Laerm;51042;49.696;10.808;2022-08-07T06:42:05;45.40;38.26;60.46;;
64079;Laerm;51042;49.696;10.808;2022-08-07T06:44:32;45.92;38.92;67.02;;
64079;Laerm;51042;49.696;10.808;2022-08-07T06:47:00;48.93;38.40;63.65;;
64079;Laerm;51042;49.696;10.808;2022-08-07T06:49:25;42.22;38.42;56.31;;
64079;Laerm;51042;49.696;10.808;2022-08-07T06:51:51;43.77;38.32;60.85;;
64079;Laerm;51042;49.696;10.808;2022-08-07T06:54:18;51.42;38.31;69.85;;
64079;Laerm;51042;49.696;10.808;2022-08-07T06:56:45;43.67;37.99;65.56;;
64079;Laerm;51042;49.696;10.808;2022-08-07T06:59:31;47.19;38.64;69.24;;
64079;Laerm;51042;49.696;10.808;2022-08-07T07:01:58;43.66;37.87;64.76;;
64079;Laerm;51042;49.696;10.808;2022-08-07T07:04:24;41.67;37.02;59.56;;
64079;Laerm;51042;49.696;10.808;2022-08-07T07:06:50;41.35;37.90;49.11;;
64079;Laerm;51042;49.696;10.808;2022-08-07T07:09:22;42.95;38.24;62.75;;
64079;Laerm;51042;49.696;10.808;2022-08-07T07:12:03;42.13;37.66;57.71;;
64079;Laerm;51042;49.696;10.808;2022-08-07T07:17:40;44.71;38.16;67.65;;
64079;Laerm;51042;49.696;10.808;2022-08-07T07:20:14;41.96;37.76;58.57;;
64079;Laerm;51042;49.696;10.808;2022-08-07T07:22:41;50.36;37.91;66.76;;
64079;Laerm;51042;49.696;10.808;2022-08-07T07:25:09;47.92;38.29;64.49;;
64079;Laerm;51042;49.696;10.808;2022-08-07T07:27:40;42.56;38.48;65.99;;
64079;Laerm;51042;49.696;10.808;2022-08-07T07:30:07;45.27;37.67;68.32;;
64079;Laerm;51042;49.696;10.808;2022-08-07T07:32:35;46.01;38.06;70.94;;
64079;Laerm;51042;49.696;10.808;2022-08-07T07:35:03;46.21;37.60;72.49;;
64079;Laerm;51042;49.696;10.808;2022-08-07T07:37:31;42.63;38.13;64.10;;
64079;Laerm;51042;49.696;10.808;2022-08-07T07:40:03;43.27;38.64;56.82;;
64079;Laerm;51042;49.696;10.808;2022-08-07T07:42:31;54.83;38.75;71.10;;
64079;Laerm;51042;49.696;10.808;2022-08-07T07:44:59;43.19;38.36;61.28;;
64079;Laerm;51042;49.696;10.808;2022-08-07T07:47:26;44.38;38.09;60.48;;
64079;Laerm;51042;49.696;10.808;2022-08-07T07:49:53;42.40;37.83;57.18;;
64079;Laerm;51042;49.696;10.808;2022-08-07T07:52:21;49.18;37.37;65.73;;
64079;Laerm;51042;49.696;10.808;2022-08-07T07:54:49;53.71;37.10;70.66;;
64079;Laerm;51042;49.696;10.808;2022-08-07T07:57:17;42.91;38.10;57.33;;
64079;Laerm;51042;49.696;10.808;2022-08-07T07:59:45;41.21;37.94;58.03;;
64079;Laerm;51042;49.696;10.808;2022-08-07T08:02:13;40.83;38.37;51.88;;
64079;Laerm;51042;49.696;10.808;2022-08-07T08:04:39;52.77;38.41;69.55;;
64079;Laerm;51042;49.696;10.808;2022-08-07T08:07:07;46.10;38.93;62.38;;
64079;Laerm;51042;49.696;10.808;2022-08-07T08:09:35;41.88;37.67;57.29;;
64079;Laerm;51042;49.696;10.808;2022-08-07T08:12:03;48.18;38.02;71.38;;
64079;Laerm;51042;49.696;10.808;2022-08-07T08:14:33;48.54;37.70;67.14;;
64079;Laerm;51042;49.696;10.808;2022-08-07T08:17:00;48.58;38.24;66.82;;
64079;Laerm;51042;49.696;10.808;2022-08-07T08:19:28;43.55;37.96;56.66;;
64079;Laerm;51042;49.696;10.808;2022-08-07T08:21:57;43.57;38.59;60.61;;
64079;Laerm;51042;49.696;10.808;2022-08-07T08:24:43;49.55;37.88;67.69;;
64079;Laerm;51042;49.696;10.808;2022-08-07T08:27:32;47.85;38.86;69.20;;
64079;Laerm;51042;49.696;10.808;2022-08-07T08:30:05;45.47;39.22;62.74;;
64079;Laerm;51042;49.696;10.808;2022-08-07T08:32:34;50.83;38.76;64.89;;
64079;Laerm;51042;49.696;10.808;2022-08-07T08:35:01;48.94;39.18;65.74;;
64079;Laerm;51042;49.696;10.808;2022-08-07T08:37:29;44.48;38.66;60.42;;
64079;Laerm;51042;49.696;10.808;2022-08-07T08:39:55;42.73;38.13;60.61;;
64079;Laerm;51042;49.696;10.808;2022-08-07T08:42:38;45.74;38.38;63.09;;
64079;Laerm;51042;49.696;10.808;2022-08-07T08:45:21;46.53;38.44;66.36;;
64079;Laerm;51042;49.696;10.808;2022-08-07T08:51:30;53.36;39.44;73.97;;
64079;Laerm;51042;49.696;10.808;2022-08-07T08:54:15;51.07;39.02;71.70;;
64079;Laerm;51042;49.696;10.808;2022-08-07T08:56:46;52.51;39.78;70.43;;
64079;Laerm;51042;49.696;10.808;2022-08-07T08:59:16;54.05;39.80;75.21;;
64079;Laerm;51042;49.696;10.808;2022-08-07T09:02:04;54.15;39.33;73.02;;
64079;Laerm;51042;49.696;10.808;2022-08-07T09:04:41;51.98;38.98;75.01;;
64079;Laerm;51042;49.696;10.808;2022-08-07T09:10:00;49.34;39.29;67.65;;
64079;Laerm;51042;49.696;10.808;2022-08-07T09:12:50;52.76;40.14;72.49;;
64079;Laerm;51042;49.696;10.808;2022-08-07T09:18:09;55.03;39.65;75.32;;
64079;Laerm;51042;49.696;10.808;2022-08-07T09:23:40;52.49;39.12;70.10;;
64079;Laerm;51042;49.696;10.808;2022-08-07T09:26:26;44.38;39.28;63.02;;
64079;Laerm;51042;49.696;10.808;2022-08-07T09:29:05;44.98;38.89;67.32;;
64079;Laerm;51042;49.696;10.808;2022-08-07T09:32:07;47.25;39.26;64.50;;
64079;Laerm;51042;49.696;10.808;2022-08-07T09:35:21;54.28;39.79;71.01;;
64079;Laerm;51042;49.696;10.808;2022-08-07T09:40:53;58.13;40.41;79.51;;
64079;Laerm;51042;49.696;10.808;2022-08-07T09:43:30;50.93;39.47;67.92;;
64079;Laerm;51042;49.696;10.808;2022-08-07T09:49:05;47.31;39.04;68.69;;
64079;Laerm;51042;49.696;10.808;2022-08-07T09:54:25;45.72;40.09;61.81;;
64079;Laerm;51042;49.696;10.808;2022-08-07T09:57:25;56.28;40.40;82.17;;
64079;Laerm;51042;49.696;10.808;2022-08-07T10:00:10;51.67;40.54;69.91;;
64079;Laerm;51042;49.696;10.808;2022-08-07T10:02:56;47.38;39.04;66.27;;
64079;Laerm;51042;49.696;10.808;2022-08-07T10:08:38;51.16;38.88;70.78;;
64079;Laerm;51042;49.696;10.808;2022-08-07T10:13:48;50.18;39.39;66.77;;
64079;Laerm;51042;49.696;10.808;2022-08-07T10:16:34;48.99;38.99;69.19;;
64079;Laerm;51042;49.696;10.808;2022-08-07T10:24:24;55.35;40.17;71.12;;
64079;Laerm;51042;49.696;10.808;2022-08-07T10:27:14;57.67;40.48;77.45;;
64079;Laerm;51042;49.696;10.808;2022-08-07T10:29:58;58.87;39.56;76.42;;
64079;Laerm;51042;49.696;10.808;2022-08-07T10:38:38;51.40;39.68;78.25;;
64079;Laerm;51042;49.696;10.808;2022-08-07T10:41:37;43.31;38.95;60.18;;
64079;Laerm;51042;49.696;10.808;2022-08-07T10:44:31;49.40;38.90;65.53;;
64079;Laerm;51042;49.696;10.808;2022-08-07T10:49:50;49.52;39.18;68.20;;
64079;Laerm;51042;49.696;10.808;2022-08-07T10:52:27;48.98;39.23;66.93;;
64079;Laerm;51042;49.696;10.808;2022-08-07T10:55:28;57.97;39.92;82.54;;
64079;Laerm;51042;49.696;10.808;2022-08-07T10:58:15;53.65;39.27;75.27;;
64079;Laerm;51042;49.696;10.808;2022-08-07T11:00:48;46.48;39.64;66.47;;
64079;Laerm;51042;49.696;10.808;2022-08-07T11:03:58;51.84;38.52;73.45;;
64079;Laerm;51042;49.696;10.808;2022-08-07T11:06:34;47.52;38.97;64.30;;
64079;Laerm;51042;49.696;10.808;2022-08-07T11:09:13;43.00;38.29;59.03;;
64079;Laerm;51042;49.696;10.808;2022-08-07T11:12:03;46.98;39.06;64.33;;
64079;Laerm;51042;49.696;10.808;2022-08-07T11:14:49;45.26;39.38;65.63;;
64079;Laerm;51042;49.696;10.808;2022-08-07T11:17:23;54.22;39.90;69.45;;
64079;Laerm;51042;49.696;10.808;2022-08-07T11:20:03;52.82;40.00;70.69;;
64079;Laerm;51042;49.696;10.808;2022-08-07T11:25:52;48.43;39.24;67.26;;
64079;Laerm;51042;49.696;10.808;2022-08-07T11:28:29;49.36;39.30;66.19;;
64079;Laerm;51042;49.696;10.808;2022-08-07T11:34:18;45.72;39.10;72.14;;
64079;Laerm;51042;49.696;10.808;2022-08-07T11:37:40;51.06;39.44;69.08;;
64079;Laerm;51042;49.696;10.808;2022-08-07T11:40:13;42.63;38.73;55.07;;
64079;Laerm;51042;49.696;10.808;2022-08-07T11:48:29;43.02;39.81;57.55;;
64079;Laerm;51042;49.696;10.808;2022-08-07T11:53:55;55.09;39.92;73.01;;
64079;Laerm;51042;49.696;10.808;2022-08-07T11:59:26;51.72;39.39;69.48;;
64079;Laerm;51042;49.696;10.808;2022-08-07T12:07:51;45.37;40.52;61.63;;
64079;Laerm;51042;49.696;10.808;2022-08-07T12:13:03;43.35;39.91;56.09;;
64079;Laerm;51042;49.696;10.808;2022-08-07T12:15:33;53.35;40.10;77.27;;
64079;Laerm;51042;49.696;10.808;2022-08-07T12:18:15;58.86;40.90;82.94;;
64079;Laerm;51042;49.696;10.808;2022-08-07T12:20:54;54.15;40.02;76.88;;
64079;Laerm;51042;49.696;10.808;2022-08-07T12:26:40;49.74;39.70;65.21;;
64079;Laerm;51042;49.696;10.808;2022-08-07T12:29:11;50.24;40.37;70.20;;
64079;Laerm;51042;49.696;10.808;2022-08-07T12:31:50;44.36;39.89;65.89;;
64079;Laerm;51042;49.696;10.808;2022-08-07T12:34:23;44.48;40.00;62.14;;
64079;Laerm;51042;49.696;10.808;2022-08-07T12:36:52;50.94;40.59;73.54;;
64079;Laerm;51042;49.696;10.808;2022-08-07T12:39:19;51.87;40.11;69.96;;
64079;Laerm;51042;49.696;10.808;2022-08-07T12:41:45;52.20;39.70;67.45;;
64079;Laerm;51042;49.696;10.808;2022-08-07T12:44:12;52.64;39.71;71.19;;
64079;Laerm;51042;49.696;10.808;2022-08-07T12:49:12;51.57;40.28;67.28;;
64079;Laerm;51042;49.696;10.808;2022-08-07T12:51:42;50.43;39.82;67.52;;
64079;Laerm;51042;49.696;10.808;2022-08-07T12:54:25;43.31;39.72;54.80;;
64079;Laerm;51042;49.696;10.808;2022-08-07T12:56:55;55.62;40.42;75.44;;
64079;Laerm;51042;49.696;10.808;2022-08-07T12:59:29;53.38;40.35;73.80;;
64079;Laerm;51042;49.696;10.808;2022-08-07T13:02:14;45.50;39.77;63.07;;
64079;Laerm;51042;49.696;10.808;2022-08-07T13:08:16;43.95;38.89;62.10;;
64079;Laerm;51042;49.696;10.808;2022-08-07T13:21:06;51.66;39.85;66.45;;
64079;Laerm;51042;49.696;10.808;2022-08-07T13:24:00;49.73;39.66;66.75;;
64079;Laerm;51042;49.696;10.808;2022-08-07T13:26:54;47.18;39.85;62.81;;
64079;Laerm;51042;49.696;10.808;2022-08-07T13:32:52;48.45;40.21;65.09;;
64079;Laerm;51042;49.696;10.808;2022-08-07T13:35:47;51.58;39.83;67.57;;
64079;Laerm;51042;49.696;10.808;2022-08-07T13:38:41;45.51;39.30;63.91;;
64079;Laerm;51042;49.696;10.808;2022-08-07T13:44:32;48.04;39.08;67.22;;
64079;Laerm;51042;49.696;10.808;2022-08-07T13:47:01;44.48;39.30;60.38;;
64079;Laerm;51042;49.696;10.808;2022-08-07T13:49:34;50.32;39.30;63.76;;
64079;Laerm;51042;49.696;10.808;2022-08-07T13:52:03;53.43;39.17;66.93;;
64079;Laerm;51042;49.696;10.808;2022-08-07T13:54:30;54.24;39.01;72.30;;
64079;Laerm;51042;49.696;10.808;2022-08-07T13:56:59;42.17;38.58;49.17;;
64079;Laerm;51042;49.696;10.808;2022-08-07T13:59:31;50.06;39.06;65.36;;
64079;Laerm;51042;49.696;10.808;2022-08-07T14:02:03;46.33;39.27;63.78;;
64079;Laerm;51042;49.696;10.808;2022-08-07T14:04:43;50.18;39.20;65.45;;
64079;Laerm;51042;49.696;10.808;2022-08-07T14:07:10;42.49;39.27;53.17;;
64079;Laerm;51042;49.696;10.808;2022-08-07T14:09:38;43.19;39.77;47.19;;
64079;Laerm;51042;49.696;10.808;2022-08-07T14:12:08;51.49;40.73;69.49;;
64079;Laerm;51042;49.696;10.808;2022-08-07T14:14:53;46.43;39.39;63.68;;
64079;Laerm;51042;49.696;10.808;2022-08-07T14:17:22;46.30;39.75;60.93;;
64079;Laerm;51042;49.696;10.808;2022-08-07T14:23:08;53.22;39.65;69.27;;
64079;Laerm;51042;49.696;10.808;2022-08-07T14:25:36;42.88;39.58;49.27;;
64079;Laerm;51042;49.696;10.808;2022-08-07T14:28:05;42.73;39.87;50.31;;
64079;Laerm;51042;49.696;10.808;2022-08-07T14:30:32;49.19;39.99;65.80;;
64079;Laerm;51042;49.696;10.808;2022-08-07T14:33:00;50.55;40.40;69.23;;
64079;Laerm;51042;49.696;10.808;2022-08-07T14:35:30;52.43;40.31;72.01;;
64079;Laerm;51042;49.696;10.808;2022-08-07T14:37:57;46.59;39.70;62.68;;
64079;Laerm;51042;49.696;10.808;2022-08-07T14:40:25;51.17;39.85;65.72;;
64079;Laerm;51042;49.696;10.808;2022-08-07T14:45:18;43.97;39.17;54.95;;
64079;Laerm;51042;49.696;10.808;2022-08-07T14:47:45;51.80;39.89;67.11;;
64079;Laerm;51042;49.696;10.808;2022-08-07T14:50:11;49.29;39.25;66.65;;
64079;Laerm;51042;49.696;10.808;2022-08-07T14:52:43;45.80;40.44;60.08;;
64079;Laerm;51042;49.696;10.808;2022-08-07T14:55:11;43.62;39.15;56.47;;
64079;Laerm;51042;49.696;10.808;2022-08-07T14:57:38;43.14;39.63;50.05;;
64079;Laerm;51042;49.696;10.808;2022-08-07T15:00:05;45.58;39.97;59.15;;
64079;Laerm;51042;49.696;10.808;2022-08-07T15:02:33;45.13;39.90;68.65;;
64079;Laerm;51042;49.696;10.808;2022-08-07T15:05:02;48.67;39.52;65.85;;
64079;Laerm;51042;49.696;10.808;2022-08-07T15:07:28;48.76;39.25;66.21;;
64079;Laerm;51042;49.696;10.808;2022-08-07T15:09:56;46.42;38.99;60.70;;
64079;Laerm;51042;49.696;10.808;2022-08-07T15:12:25;43.23;39.57;59.35;;
64079;Laerm;51042;49.696;10.808;2022-08-07T15:15:03;43.70;39.82;56.89;;
64079;Laerm;51042;49.696;10.808;2022-08-07T15:17:31;46.67;39.79;70.64;;
64079;Laerm;51042;49.696;10.808;2022-08-07T15:20:04;43.70;39.47;61.25;;
64079;Laerm;51042;49.696;10.808;2022-08-07T15:22:43;43.79;38.95;60.10;;
64079;Laerm;51042;49.696;10.808;2022-08-07T15:25:11;48.44;39.82;65.54;;
64079;Laerm;51042;49.696;10.808;2022-08-07T15:27:40;50.48;39.45;68.07;;
64079;Laerm;51042;49.696;10.808;2022-08-07T15:30:10;44.05;39.76;63.74;;
64079;Laerm;51042;49.696;10.808;2022-08-07T15:32:40;42.76;39.75;56.53;;
64079;Laerm;51042;49.696;10.808;2022-08-07T15:35:17;47.35;39.63;63.00;;
64079;Laerm;51042;49.696;10.808;2022-08-07T15:37:48;43.95;39.92;51.84;;
64079;Laerm;51042;49.696;10.808;2022-08-07T15:40:15;44.03;39.46;59.62;;
64079;Laerm;51042;49.696;10.808;2022-08-07T15:45:08;52.48;39.82;64.64;;
64079;Laerm;51042;49.696;10.808;2022-08-07T15:47:38;52.56;40.06;68.56;;
64079;Laerm;51042;49.696;10.808;2022-08-07T15:50:05;51.17;40.21;66.87;;
64079;Laerm;51042;49.696;10.808;2022-08-07T15:52:34;48.72;39.14;65.83;;